Aeroporto :







RITROVATECI SU...

 
LOGIN :

Iscrizione | Disclaimer

   EN    FR    IT 

 









Sommario :    VFR   VFR Marginale   IFR   IFR Intensivo   IFR Molto Intensivo
Visibilità : 
Base nubi : 
>= 8 km
>= 3000ft
5 / 8 km
1000 / 3000 ft
1500m / 5 km
500 / 1000 ft
800 / 1500m
200 / 500 ft
< 800m
< 200 ft
Simboli :   Temporali  Nebbia  Neve Forte  Precipitazioni Forti  Vento > 20 kt






- Altitudine del aeroporto : 16 ft
- Codice IATA : FDF


TFFF - Aime Cesaire

ULTIMO METAR :
  • 240000Z AUTO 11009KT 9999 SCT030 BKN038 28/24 Q1015 NOSIG

METARs OBSOLETI :
  • 232330Z AUTO 10009KT 9999 SCT026 SCT032 BKN038 28/24 Q1014
  • 232300Z AUTO 10009KT 9999 BKN026 BKN033 BKN039 28/24 Q1014
  • 232230Z AUTO 10010KT 9999 FEW026 BKN039 29/24 Q1014
  • 232200Z AUTO 11012KT 9999 SCT028 BKN039 29/24 Q1014

TAF TAF TFFF
Valido dal 24 a 00 ore il 25 a 00 ore UTC


232300Z 2400/2424 10010KT 9999 SCT025
TEMPO 2412/2422 10015G30KT
FIR TTZP / America del Nord



MetMap, La meteo Aeronautica in un colpo d'occhio ! - Copyright ORBIFLY Dicembre 2007 - Disclaimer

ORBIFLY MET'MAP TEAM :

Programmazione e sviluppo : Alexandra Zaïnal
Concezione : Baudouin d'Aumeries
Aiuto per la programmazione : Marc-Olivier Méhu
Supporto tecnico e logistico : Manuel Goepfert
Aiuto per la traduzione : Arnaldo La Scala

Contatto : metmap@orbifly.com




FONTI E CREDITI :

   NOAA